Time;durP1;ratioP1;P1;durP2;ratioP2;P2;SDS_P1;SDS_P2;PMS_P1;PMS_P2;Temp;Humidity;BMP_temperature;BMP_pressure;BME280_temperature;BME280_humidity;BME280_pressure;Samples;Min_cycle;Max_cycle;Signal;HPM_P1;HPM_P2
2024/04/16 00:02:18;;;;;;;4.27;3.90;;;;;;;6.25;85.53;99244.09;5344757;26;20283;-85
2024/04/16 00:04:46;;;;;;;4.43;3.93;;;;;;;6.20;85.59;99228.56;5352388;26;20249;-81
2024/04/16 00:07:12;;;;;;;4.00;3.60;;;;;;;6.15;86.13;99233.28;5344965;26;20286;-84
2024/04/16 00:09:40;;;;;;;4.07;3.67;;;;;;;6.16;86.45;99237.63;5344668;26;20248;-83
2024/04/16 00:12:06;;;;;;;4.03;3.63;;;;;;;6.15;86.75;99224.50;5335900;26;20292;-81
2024/04/16 00:14:37;;;;;;;4.30;3.83;;;;;;;6.12;87.04;99228.22;5341966;26;20240;-86
2024/04/16 00:17:03;;;;;;;4.30;3.73;;;;;;;6.12;87.17;99225.56;5354739;26;20229;-86
2024/04/16 00:19:31;;;;;;;4.70;4.13;;;;;;;6.12;87.06;99228.22;5345295;26;20283;-84
2024/04/16 00:21:57;;;;;;;4.47;4.07;;;;;;;6.14;87.57;99222.81;5344027;26;20253;-83
2024/04/16 00:24:26;;;;;;;4.27;3.97;;;;;;;6.12;87.06;99217.63;5341542;26;20229;-84
2024/04/16 00:26:51;;;;;;;3.83;3.53;;;;;;;6.14;86.93;99221.03;5349225;26;20233;-84
2024/04/16 00:29:20;;;;;;;5.23;4.37;;;;;;;6.14;86.11;99230.75;5348187;26;20299;-82
2024/04/16 00:31:48;;;;;;;3.90;3.60;;;;;;;6.13;86.43;99215.84;5337716;26;20237;-84
2024/04/16 00:34:16;;;;;;;4.27;3.83;;;;;;;6.16;86.22;99215.63;5337531;26;20298;-85
2024/04/16 00:36:42;;;;;;;4.97;3.60;;;;;;;6.14;86.34;99205.16;5345842;26;20283;-85
2024/04/16 00:39:12;;;;;;;3.90;3.60;;;;;;;6.13;86.78;99219.34;5351947;26;20245;-84
2024/04/16 00:41:38;;;;;;;3.93;3.53;;;;;;;6.12;87.28;99209.72;5342557;26;20256;-85
2024/04/16 00:44:06;;;;;;;3.80;3.50;;;;;;;6.09;87.78;99207.28;5346572;26;20244;-85
2024/04/16 00:46:33;;;;;;;3.80;3.37;;;;;;;6.12;88.68;99220.28;5342590;26;20245;-84
2024/04/16 00:49:04;;;;;;;4.37;3.33;;;;;;;6.12;89.50;99212.34;5352695;26;20339;-82
2024/04/16 00:51:31;;;;;;;3.73;3.30;;;;;;;6.14;90.09;99217.53;5341985;26;20242;-85
2024/04/16 00:53:59;;;;;;;4.20;3.63;;;;;;;6.14;90.49;99230.75;5339807;26;20237;-84
2024/04/16 00:56:26;;;;;;;3.83;3.47;;;;;;;6.12;90.63;99227.38;5351541;26;20287;-83
2024/04/16 00:58:56;;;;;;;4.60;3.50;;;;;;;6.08;91.13;99216.19;5347533;26;20245;-83
2024/04/16 01:01:22;;;;;;;3.30;3.00;;;;;;;6.07;92.12;99232.97;5344620;26;20248;-84
2024/04/16 01:03:52;;;;;;;3.90;3.60;;;;;;;6.08;93.04;99232.03;5338176;26;20283;-84
2024/04/16 01:06:21;;;;;;;3.40;3.10;;;;;;;6.05;93.45;99221.66;5347912;26;20252;-84
2024/04/16 01:08:49;;;;;;;4.77;4.37;;;;;;;6.04;94.04;99212.03;5345410;26;20348;-84
2024/04/16 01:11:22;;;;;;;3.27;2.97;;;;;;;6.05;94.42;99213.72;5346384;26;20281;-83
2024/04/16 01:13:50;;;;;;;3.70;2.73;;;;;;;6.04;94.93;99203.25;5331017;26;20233;-83
2024/04/16 01:16:16;;;;;;;2.00;1.80;;;;;;;6.02;94.51;99200.72;5345404;26;20245;-84
2024/04/16 01:18:44;;;;;;;1.67;1.40;;;;;;;5.95;93.65;99198.59;5346312;26;20241;-84
2024/04/16 01:21:12;;;;;;;1.70;1.60;;;;;;;5.89;92.80;99190.16;5358102;26;20282;-84
2024/04/16 01:23:41;;;;;;;2.10;1.50;;;;;;;5.82;92.27;99194.09;5346180;26;20229;-83
2024/04/16 01:26:09;;;;;;;1.53;1.27;;;;;;;5.81;91.77;99191.56;5345725;26;20236;-83
2024/04/16 01:28:35;;;;;;;2.73;0.77;;;;;;;5.75;90.78;99189.31;5349976;26;20248;-85
2024/04/16 01:31:03;;;;;;;2.77;1.00;;;;;;;5.67;90.37;99174.00;5351300;26;20771;-85
2024/04/16 01:33:29;;;;;;;1.70;1.10;;;;;;;5.63;91.09;99183.06;5340564;26;20284;-85
2024/04/16 01:35:57;;;;;;;1.70;1.00;;;;;;;5.57;91.15;99186.09;5336181;26;20229;-84
2024/04/16 01:38:23;;;;;;;1.50;0.90;;;;;;;5.53;91.07;99185.47;5344707;26;20299;-84
2024/04/16 01:40:54;;;;;;;2.83;1.10;;;;;;;5.47;91.35;99174.47;5346148;26;20236;-84
2024/04/16 01:43:19;;;;;;;1.33;0.93;;;;;;;5.48;91.75;99177.00;5337693;26;20233;-83
2024/04/16 01:45:48;;;;;;;1.67;1.40;;;;;;;5.46;92.43;99181.53;5345508;26;20291;-82
2024/04/16 01:48:13;;;;;;;1.30;1.20;;;;;;;5.46;92.75;99185.97;5346034;26;20280;-83
2024/04/16 01:50:41;;;;;;;2.80;1.50;;;;;;;5.42;92.58;99182.69;5348182;26;20240;-84
2024/04/16 01:53:07;;;;;;;1.47;1.30;;;;;;;5.41;93.18;99186.28;5345669;26;20299;-85
2024/04/16 01:55:38;;;;;;;1.83;1.33;;;;;;;5.39;93.08;99172.31;5346748;26;20237;-84
2024/04/16 01:58:06;;;;;;;1.50;1.40;;;;;;;5.42;93.46;99179.19;5346493;26;20291;-84
2024/04/16 02:00:35;;;;;;;1.87;1.40;;;;;;;5.37;93.41;99190.09;5346651;26;20363;-85
2024/04/16 02:03:02;;;;;;;1.50;1.40;;;;;;;5.41;93.47;99191.56;5346192;26;20257;-83
2024/04/16 02:05:31;;;;;;;1.93;1.50;;;;;;;5.44;93.70;99186.06;5341259;26;20295;-83
2024/04/16 02:07:56;;;;;;;1.70;1.40;;;;;;;5.49;94.44;99181.34;5345028;26;20256;-83
2024/04/16 02:10:25;;;;;;;1.90;1.20;;;;;;;5.54;94.41;99168.69;5346299;26;22268;-84
2024/04/16 02:12:50;;;;;;;1.60;1.40;;;;;;;5.52;94.89;99164.47;5345673;26;20252;-84
2024/04/16 02:15:22;;;;;;;2.13;1.80;;;;;;;5.48;94.76;99157.69;5345281;26;20248;-84
2024/04/16 02:17:47;;;;;;;1.60;1.33;;;;;;;5.48;94.78;99160.31;5346425;26;20279;-85
2024/04/16 02:20:17;;;;;;;2.53;1.90;;;;;;;5.47;94.72;99156.84;5345252;26;20241;-83
2024/04/16 02:22:42;;;;;;;2.00;1.80;;;;;;;5.49;94.83;99154.09;5344399;26;20245;-84
2024/04/16 02:25:11;;;;;;;2.03;1.80;;;;;;;5.53;93.04;99161.72;5335819;26;20287;-85
2024/04/16 02:27:37;;;;;;;2.10;1.90;;;;;;;5.49;93.66;99152.31;5353109;26;20265;-85
2024/04/16 02:30:06;;;;;;;3.03;2.20;;;;;;;5.51;92.85;99154.84;5348364;26;20342;-84
2024/04/16 02:32:36;;;;;;;3.07;2.77;;;;;;;5.50;93.35;99169.84;5333956;26;20245;-83
2024/04/16 02:35:04;;;;;;;3.57;2.73;;;;;;;5.44;93.59;99143.81;5343531;26;20840;-84
2024/04/16 02:37:29;;;;;;;3.53;3.07;;;;;;;5.46;95.00;99139.28;5343307;26;20233;-84
2024/04/16 02:39:58;;;;;;;3.57;2.90;;;;;;;5.46;94.45;99144.56;5342974;26;20283;-82
2024/04/16 02:42:23;;;;;;;3.80;3.17;;;;;;;5.47;95.67;99143.63;5347103;26;20253;-82
2024/04/16 02:44:52;;;;;;;4.30;3.20;;;;;;;5.48;96.09;99141.84;5353719;26;20287;-82
2024/04/16 02:47:17;;;;;;;5.40;3.57;;;;;;;5.46;96.87;99131.38;5336439;26;20252;-83
2024/04/16 02:49:48;;;;;;;4.20;3.53;;;;;;;5.48;97.13;99141.84;5346370;26;20237;-82
2024/04/16 02:52:14;;;;;;;5.10;3.80;;;;;;;5.47;97.39;99122.50;5346082;26;20248;-82
2024/04/16 02:54:42;;;;;;;5.50;5.00;;;;;;;5.48;97.21;99126.84;5340994;26;20279;-84
2024/04/16 02:57:08;;;;;;;6.37;4.57;;;;;;;5.45;98.62;99119.13;5344221;26;20276;-83
2024/04/16 02:59:36;;;;;;;6.77;4.47;;;;;;;5.47;99.03;99122.50;5345124;26;20237;-84
2024/04/16 03:02:02;;;;;;;8.63;5.60;;;;;;;5.42;98.85;99108.75;5347205;26;20232;-84
2024/04/16 03:04:30;;;;;;;8.80;4.73;;;;;;;5.47;99.46;99114.59;5355736;26;21789;-84
2024/04/16 03:06:58;;;;;;;5.60;4.23;;;;;;;5.49;99.08;99107.41;5343510;26;20225;-81
2024/04/16 03:09:27;;;;;;;10.13;5.70;;;;;;;5.44;98.64;99112.16;5344551;26;20863;-83
2024/04/16 03:11:52;;;;;;;7.93;5.47;;;;;;;5.44;98.50;99108.66;5341682;26;20222;-81
2024/04/16 03:14:21;;;;;;;9.37;5.83;;;;;;;5.43;98.52;99104.31;5344641;26;20288;-84
2024/04/16 03:16:46;;;;;;;11.23;7.00;;;;;;;5.39;97.60;99110.75;5341448;26;20780;-84
2024/04/16 03:19:14;;;;;;;9.90;5.77;;;;;;;5.41;98.94;99104.41;5353893;26;20248;-83
2024/04/16 03:21:40;;;;;;;9.53;6.33;;;;;;;5.43;97.91;99107.81;5344901;26;20799;-84
2024/04/16 03:24:11;;;;;;;7.47;5.23;;;;;;;5.44;97.40;99109.50;5352239;26;20245;-84
2024/04/16 03:26:37;;;;;;;8.13;6.07;;;;;;;5.47;97.16;99106.66;5351568;26;20249;-84
2024/04/16 03:29:05;;;;;;;9.90;6.43;;;;;;;5.48;96.92;99107.50;5348925;26;20299;-81
2024/04/16 03:31:31;;;;;;;7.77;5.27;;;;;;;5.48;96.93;99110.16;5349554;26;20240;-83
2024/04/16 03:33:59;;;;;;;9.13;6.07;;;;;;;5.50;96.05;99093.25;5348329;26;20283;-84
2024/04/16 03:36:25;;;;;;;6.70;5.27;;;;;;;5.50;95.80;99109.09;5349054;26;20292;-83
2024/04/16 03:38:53;;;;;;;12.33;5.87;;;;;;;5.52;95.77;99116.94;5351686;26;20248;-84
2024/04/16 03:41:24;;;;;;;10.47;5.50;;;;;;;5.51;95.69;99107.31;5347313;26;20773;-85
2024/04/16 03:43:50;;;;;;;8.70;4.80;;;;;;;5.54;94.90;99109.75;5344462;26;20229;-85
2024/04/16 03:46:19;;;;;;;9.03;5.50;;;;;;;5.55;94.52;99114.91;5346297;26;20323;-84
2024/04/16 03:48:44;;;;;;;8.27;4.43;;;;;;;5.61;94.79;99115.44;5351154;26;20847;-85
2024/04/16 03:51:13;;;;;;;10.20;5.30;;;;;;;5.63;94.23;99118.84;5344441;26;20240;-84
2024/04/16 03:53:38;;;;;;;13.30;5.37;;;;;;;5.63;94.08;99130.25;5346760;26;20233;-84
2024/04/16 03:56:07;;;;;;;7.83;4.63;;;;;;;5.68;94.55;99122.03;5346656;26;20275;-85
2024/04/16 03:58:43;;;;;;;9.13;4.47;;;;;;;5.67;93.11;99118.53;5358574;26;20236;-84
2024/04/16 04:01:12;;;;;;;10.00;5.17;;;;;;;5.72;93.02;99118.22;5345984;26;20245;-84
2024/04/16 04:03:39;;;;;;;7.33;4.23;;;;;;;5.76;91.99;99122.34;5351099;26;20252;-86
2024/04/16 04:06:08;;;;;;;6.93;4.63;;;;;;;5.78;92.05;99120.44;5355934;26;20354;-84
2024/04/16 04:08:34;;;;;;;6.80;4.63;;;;;;;5.83;92.33;99118.34;5349809;26;20305;-84
2024/04/16 04:11:02;;;;;;;9.03;4.30;;;;;;;5.84;91.69;99126.16;5358172;26;20753;-84
2024/04/16 04:13:28;;;;;;;7.40;3.57;;;;;;;5.91;91.27;99119.50;5347616;26;20344;-83
2024/04/16 04:15:59;;;;;;;7.47;3.57;;;;;;;5.92;91.00;99112.44;5356180;26;20744;-82
2024/04/16 04:18:24;;;;;;;11.93;3.40;;;;;;;5.96;90.78;99113.06;5348650;26;20244;-84
2024/04/16 04:20:53;;;;;;;8.37;3.20;;;;;;;5.97;90.23;99107.69;5353892;26;20245;-81
2024/04/16 04:23:18;;;;;;;6.10;3.73;;;;;;;6.01;90.25;99103.88;5350116;26;20252;-82
2024/04/16 04:25:46;;;;;;;5.17;3.73;;;;;;;6.03;91.15;99112.56;5349635;26;20584;-81
2024/04/16 04:28:12;;;;;;;10.50;3.83;;;;;;;6.04;90.17;99119.53;5348820;26;20241;-81
2024/04/16 04:30:40;;;;;;;7.27;3.37;;;;;;;6.03;89.95;99123.13;5349317;26;20241;-81
2024/04/16 04:33:10;;;;;;;6.53;3.33;;;;;;;6.05;90.59;99121.22;5346574;26;20622;-83
2024/04/16 04:35:38;;;;;;;9.03;3.23;;;;;;;6.04;90.23;99130.13;5352535;26;20272;-80
2024/04/16 04:38:04;;;;;;;6.73;3.30;;;;;;;6.01;89.85;99125.03;5344091;26;20233;-83
2024/04/16 04:40:32;;;;;;;6.43;3.37;;;;;;;6.05;88.67;99125.66;5350618;26;20290;-84
2024/04/16 04:42:59;;;;;;;6.20;3.20;;;;;;;6.04;89.09;99129.25;5349104;26;20261;-81
2024/04/16 04:45:27;;;;;;;8.33;2.77;;;;;;;6.05;88.97;99123.88;5342982;26;20271;-83
2024/04/16 04:47:53;;;;;;;7.60;2.77;;;;;;;6.03;88.36;99123.13;5350140;26;20268;-83
2024/04/16 04:50:24;;;;;;;8.73;2.37;;;;;;;6.08;87.58;99122.81;5346125;26;20653;-80
2024/04/16 04:52:50;;;;;;;8.70;2.63;;;;;;;6.07;87.17;99127.25;5345256;26;20846;-84
2024/04/16 04:55:18;;;;;;;7.27;2.13;;;;;;;6.06;86.97;99108.88;5352244;26;20245;-84
2024/04/16 04:57:44;;;;;;;4.73;1.90;;;;;;;6.07;86.01;99121.97;5354035;26;20974;-83
2024/04/16 05:00:13;;;;;;;4.63;2.30;;;;;;;6.07;86.32;99121.97;5348312;26;20250;-81
2024/04/16 05:02:38;;;;;;;9.23;2.47;;;;;;;6.07;86.03;99127.25;5348699;26;20303;-82
2024/04/16 05:05:07;;;;;;;6.97;2.50;;;;;;;6.09;86.11;99119.22;5346210;26;20246;-82
2024/04/16 05:07:36;;;;;;;11.93;2.40;;;;;;;6.07;85.48;99121.97;5344117;26;20275;-82
2024/04/16 05:10:04;;;;;;;6.93;2.40;;;;;;;6.10;84.97;99120.88;5357510;26;20621;-81
2024/04/16 05:12:30;;;;;;;6.47;2.73;;;;;;;6.10;85.20;99111.16;5345359;26;20249;-83
2024/04/16 05:14:58;;;;;;;6.00;2.53;;;;;;;6.13;85.03;99129.47;5348728;26;20614;-82
2024/04/16 05:17:24;;;;;;;5.73;2.17;;;;;;;6.14;84.81;99125.03;5346724;26;20743;-82
2024/04/16 05:19:52;;;;;;;6.60;2.37;;;;;;;6.15;84.76;99127.56;5344598;26;20350;-82
2024/04/16 05:22:18;;;;;;;5.33;2.10;;;;;;;6.19;85.68;99136.97;5340494;26;20249;-82
2024/04/16 05:24:49;;;;;;;5.33;2.30;;;;;;;6.22;86.00;99136.78;5350426;26;20237;-80
2024/04/16 05:27:15;;;;;;;8.50;2.50;;;;;;;6.22;85.52;99133.28;5350074;26;20252;-82
2024/04/16 05:29:43;;;;;;;10.57;2.97;;;;;;;6.24;85.05;99137.50;5347997;26;20304;-83
2024/04/16 05:32:11;;;;;;;9.40;2.50;;;;;;;6.24;85.08;99137.50;5347240;26;20345;-83
2024/04/16 05:34:39;;;;;;;6.43;2.57;;;;;;;6.30;84.24;99133.56;5347916;26;20276;-82
2024/04/16 05:37:05;;;;;;;5.37;2.30;;;;;;;6.30;84.13;99130.09;5348023;26;20291;-82
2024/04/16 05:39:33;;;;;;;4.10;2.27;;;;;;;6.33;83.44;99135.16;5345183;26;20237;-83
2024/04/16 05:42:02;;;;;;;4.47;2.93;;;;;;;6.34;83.18;99126.28;5352676;26;20325;-82
2024/04/16 05:44:30;;;;;;;6.67;3.00;;;;;;;6.34;83.06;99118.34;5342537;26;20820;-82
2024/04/16 05:46:56;;;;;;;5.40;2.77;;;;;;;6.35;82.93;99107.66;5347590;26;20283;-82
2024/04/16 05:49:24;;;;;;;8.03;2.27;;;;;;;6.39;82.58;99103.00;5345798;26;20252;-83
2024/04/16 05:51:50;;;;;;;6.90;2.70;;;;;;;6.38;82.47;99093.38;5345063;26;20967;-83
2024/04/16 05:54:19;;;;;;;5.17;2.50;;;;;;;6.48;81.42;99105.84;5339404;26;20321;-83
2024/04/16 05:56:44;;;;;;;5.37;2.40;;;;;;;6.57;81.27;99102.56;5348127;26;20241;-81
2024/04/16 05:59:16;;;;;;;5.43;2.77;;;;;;;6.62;79.43;99104.88;5349767;26;20279;-82
2024/04/16 06:01:41;;;;;;;3.63;2.60;;;;;;;6.69;79.76;99095.53;5343552;26;20673;-85
2024/04/16 06:04:10;;;;;;;5.37;2.70;;;;;;;6.77;79.27;99102.91;5344208;26;20283;-84
2024/04/16 06:06:35;;;;;;;6.33;2.87;;;;;;;6.83;78.59;99091.88;5350649;26;20773;-84
2024/04/16 06:09:04;;;;;;;4.57;2.53;;;;;;;6.87;78.84;99107.41;5350718;26;20233;-85
2024/04/16 06:11:31;;;;;;;4.03;2.20;;;;;;;6.89;77.81;99094.94;5349098;26;20291;-85
2024/04/16 06:13:59;;;;;;;6.33;2.33;;;;;;;6.86;77.85;99100.44;5354346;26;20237;-84
2024/04/16 06:16:28;;;;;;;4.20;2.63;;;;;;;6.87;77.75;99114.53;5345555;26;20272;-84
2024/04/16 06:18:56;;;;;;;4.73;2.60;;;;;;;6.82;77.98;99120.13;5350027;26;20264;-84
2024/04/16 06:21:22;;;;;;;3.67;2.37;;;;;;;6.82;78.55;99121.94;5346501;26;20253;-84
2024/04/16 06:23:52;;;;;;;3.67;2.30;;;;;;;6.84;78.88;99118.22;5349773;26;20294;-82
2024/04/16 06:26:17;;;;;;;5.13;2.10;;;;;;;6.80;77.90;99132.66;5341410;26;20279;-85
2024/04/16 06:28:46;;;;;;;3.43;2.23;;;;;;;6.84;78.37;99126.16;5344351;26;20236;-83
2024/04/16 06:31:11;;;;;;;3.07;2.30;;;;;;;6.83;78.31;99127.13;5347554;26;20287;-84
2024/04/16 06:33:42;;;;;;;5.73;2.83;;;;;;;6.87;78.44;99133.88;5351334;26;20728;-85
2024/04/16 06:36:08;;;;;;;4.47;2.33;;;;;;;6.88;78.94;99132.94;5338294;26;20279;-84
2024/04/16 06:38:36;;;;;;;5.30;2.27;;;;;;;6.87;78.54;99141.81;5352339;26;20241;-85
2024/04/16 06:41:02;;;;;;;3.90;1.90;;;;;;;6.92;78.17;99138.84;5342229;26;20230;-83
2024/04/16 06:43:31;;;;;;;4.33;2.17;;;;;;;6.92;77.59;99134.41;5346900;26;20296;-80
2024/04/16 06:45:57;;;;;;;3.67;2.20;;;;;;;6.91;77.62;99140.66;5350401;26;20233;-83
2024/04/16 06:48:25;;;;;;;3.63;2.13;;;;;;;6.90;77.82;99138.13;5347812;26;20661;-82
2024/04/16 06:50:53;;;;;;;7.97;2.30;;;;;;;6.91;78.41;99145.94;5348174;26;20854;-82
2024/04/16 06:53:22;;;;;;;4.83;2.90;;;;;;;6.91;78.58;99143.31;5348192;26;20233;-83
2024/04/16 06:55:58;;;;;;;5.70;2.20;;;;;;;6.93;78.12;99145.84;5339822;26;20234;-85
2024/04/16 06:58:26;;;;;;;3.30;2.10;;;;;;;6.92;77.80;99150.28;5348634;26;20248;-83
2024/04/16 07:00:52;;;;;;;3.30;2.13;;;;;;;6.90;78.05;99146.91;5344139;26;20240;-83
2024/04/16 07:03:20;;;;;;;4.37;2.00;;;;;;;6.89;77.83;99150.50;5348597;26;20268;-82
2024/04/16 07:05:45;;;;;;;2.50;1.63;;;;;;;6.86;78.38;99160.47;5344339;26;20237;-83
2024/04/16 07:08:17;;;;;;;2.03;1.70;;;;;;;6.83;77.62;99156.22;5350016;26;20572;-82
2024/04/16 07:10:42;;;;;;;2.43;1.87;;;;;;;6.76;78.08;99155.00;5350903;26;20640;-85
2024/04/16 07:13:10;;;;;;;2.20;1.60;;;;;;;6.75;78.92;99158.59;5349641;26;20308;-85
2024/04/16 07:15:36;;;;;;;2.43;1.70;;;;;;;6.73;79.24;99167.59;5350554;26;20256;-82
2024/04/16 07:18:05;;;;;;;3.17;2.03;;;;;;;6.74;79.56;99164.00;5350429;26;20279;-83
2024/04/16 07:20:31;;;;;;;2.60;1.60;;;;;;;6.75;79.96;99165.69;5350430;26;20268;-82
2024/04/16 07:23:00;;;;;;;3.50;1.70;;;;;;;6.78;80.13;99170.75;5348415;26;20271;-83
2024/04/16 07:25:28;;;;;;;3.37;1.70;;;;;;;6.74;80.26;99162.19;5349996;26;20245;-86
2024/04/16 07:27:56;;;;;;;2.43;1.57;;;;;;;6.75;80.99;99163.88;5350776;26;20780;-85
2024/04/16 07:30:22;;;;;;;1.90;1.70;;;;;;;6.76;80.26;99168.22;5331967;26;20671;-83
2024/04/16 07:32:50;;;;;;;2.60;1.73;;;;;;;6.71;81.02;99159.75;5347558;26;20275;-83
2024/04/16 07:35:16;;;;;;;3.60;1.90;;;;;;;6.74;82.25;99159.53;5348779;26;20295;-85
2024/04/16 07:37:44;;;;;;;3.47;1.70;;;;;;;6.74;81.48;99148.97;5345241;26;20768;-82
2024/04/16 07:40:10;;;;;;;4.27;1.93;;;;;;;6.80;82.39;99137.94;5346525;26;20236;-84
2024/04/16 07:42:41;;;;;;;2.67;1.80;;;;;;;6.88;82.29;99146.16;5339465;26;20237;-81
2024/04/16 07:45:07;;;;;;;2.47;2.10;;;;;;;7.02;82.56;99144.31;5357311;26;20271;-84
2024/04/16 07:47:35;;;;;;;2.70;1.60;;;;;;;7.17;80.79;99138.75;5360589;26;20233;-82
2024/04/16 07:50:01;;;;;;;2.07;1.80;;;;;;;7.35;81.55;99135.69;5348598;26;20319;-82
2024/04/16 07:52:31;;;;;;;5.30;2.00;;;;;;;7.58;80.52;99146.28;5353441;26;20232;-85
2024/04/16 07:54:56;;;;;;;2.27;1.77;;;;;;;7.73;78.63;99151.38;5346858;26;20233;-85
2024/04/16 07:57:25;;;;;;;2.53;1.60;;;;;;;7.89;77.12;99147.44;5348413;26;20342;-84
2024/04/16 07:59:53;;;;;;;3.10;1.60;;;;;;;7.88;75.98;99148.41;5342038;26;20323;-84
2024/04/16 08:02:21;;;;;;;3.40;1.53;;;;;;;7.89;74.77;99149.25;5341437;26;20731;-83
2024/04/16 08:04:47;;;;;;;3.07;1.33;;;;;;;7.90;73.87;99148.28;5350487;26;20338;-83
2024/04/16 08:07:15;;;;;;;3.30;1.70;;;;;;;7.85;73.11;99155.78;5352633;26;20231;-83
2024/04/16 08:09:43;;;;;;;2.27;1.50;;;;;;;7.81;73.22;99151.66;5353493;26;20245;-82
2024/04/16 08:12:11;;;;;;;2.07;1.30;;;;;;;7.86;73.25;99149.50;5350364;26;20460;-84
2024/04/16 08:14:37;;;;;;;2.57;1.57;;;;;;;7.88;72.77;99144.94;5364005;26;20236;-84
2024/04/16 08:17:08;;;;;;;3.00;1.60;;;;;;;7.92;72.73;99147.22;5360005;26;20643;-84
2024/04/16 08:19:33;;;;;;;2.63;1.10;;;;;;;8.00;72.64;99139.53;5354321;26;20249;-84
2024/04/16 08:22:02;;;;;;;1.50;1.20;;;;;;;8.20;72.23;99131.84;5349200;26;20335;-83
2024/04/16 08:24:27;;;;;;;4.00;1.40;;;;;;;8.43;71.86;99138.03;5355156;26;20796;-84
2024/04/16 08:26:55;;;;;;;2.20;1.30;;;;;;;8.69;71.26;99136.81;5345221;26;20279;-84
2024/04/16 08:29:21;;;;;;;2.47;1.27;;;;;;;8.96;68.97;99133.75;5355596;26;20260;-84
2024/04/16 08:31:49;;;;;;;2.50;1.30;;;;;;;9.15;68.82;99135.75;5351335;26;20278;-85
2024/04/16 08:34:18;;;;;;;1.50;1.27;;;;;;;9.36;68.89;99121.56;5357076;26;20355;-84
2024/04/16 08:36:47;;;;;;;2.37;1.50;;;;;;;9.53;67.23;99128.16;5360989;26;20232;-83
2024/04/16 08:39:13;;;;;;;2.07;1.17;;;;;;;9.69;67.88;99117.06;5355522;26;20253;-83
2024/04/16 08:41:41;;;;;;;2.37;1.27;;;;;;;9.89;66.72;99132.19;5352791;26;20347;-85
2024/04/16 08:44:07;;;;;;;1.73;1.17;;;;;;;9.99;64.18;99126.97;5349009;26;20271;-86
2024/04/16 08:46:37;;;;;;;3.07;1.97;;;;;;;10.12;64.56;99114.28;5351327;26;20768;-83
2024/04/16 08:49:04;;;;;;;2.17;1.33;;;;;;;10.24;63.66;99126.56;5349889;26;20241;-85
2024/04/16 08:51:37;;;;;;;1.77;1.30;;;;;;;10.29;62.09;99120.84;5355891;26;20240;-83
2024/04/16 08:54:04;;;;;;;1.43;1.20;;;;;;;10.32;60.84;99125.91;5353985;26;20237;-83
2024/04/16 08:56:34;;;;;;;2.57;1.20;;;;;;;10.32;61.09;99125.91;5351229;26;20237;-82
2024/04/16 08:58:59;;;;;;;2.33;1.10;;;;;;;10.44;60.95;99119.50;5344160;26;20236;-82
2024/04/16 09:01:28;;;;;;;1.83;1.20;;;;;;;10.55;60.37;99118.59;5349655;26;20266;-83
2024/04/16 09:03:54;;;;;;;2.00;1.10;;;;;;;10.54;59.73;99122.22;5356187;26;20242;-83
2024/04/16 09:06:23;;;;;;;2.93;1.10;;;;;;;10.54;60.65;99128.41;5335312;26;20342;-83
2024/04/16 09:08:53;;;;;;;2.37;1.20;;;;;;;10.55;60.46;99126.59;5350925;26;20287;-82
2024/04/16 09:11:21;;;;;;;1.83;1.10;;;;;;;10.58;61.36;99126.28;5353490;26;20241;-85
2024/04/16 09:13:47;;;;;;;1.00;0.90;;;;;;;10.63;62.02;99127.59;5342990;26;20268;-83
2024/04/16 09:16:18;;;;;;;1.67;1.53;;;;;;;10.67;61.46;99125.50;5348265;26;20234;-85
2024/04/16 09:18:43;;;;;;;1.60;1.30;;;;;;;10.80;61.07;99128.75;5339734;26;20246;-83
2024/04/16 09:21:12;;;;;;;2.33;1.20;;;;;;;10.98;61.18;99129.78;5359767;26;20275;-83
2024/04/16 09:23:38;;;;;;;1.70;1.10;;;;;;;11.21;58.78;99135.72;5354055;26;20242;-86
2024/04/16 09:26:14;;;;;;;2.17;1.30;;;;;;;11.31;58.16;99127.72;5348280;26;20233;-83
2024/04/16 09:28:46;;;;;;;2.70;1.30;;;;;;;11.41;57.93;99126.78;5342744;26;20241;-84
2024/04/16 09:31:18;;;;;;;1.90;1.53;;;;;;;11.51;57.09;99126.78;5352819;26;20243;-83
2024/04/16 09:33:44;;;;;;;1.80;1.20;;;;;;;11.51;56.47;99131.25;5350108;26;20635;-85
2024/04/16 09:36:15;;;;;;;2.83;1.27;;;;;;;11.47;56.43;99125.34;5349171;26;20230;-84
2024/04/16 09:38:41;;;;;;;1.93;0.90;;;;;;;11.43;57.25;99139.97;5349553;26;20239;-87
2024/04/16 09:41:12;;;;;;;3.30;1.57;;;;;;;11.38;56.79;99132.38;5349265;26;20586;-83
2024/04/16 09:43:40;;;;;;;2.17;0.97;;;;;;;11.36;57.08;99138.84;5338537;26;20296;-84
2024/04/16 09:46:10;;;;;;;2.70;1.00;;;;;;;11.31;57.81;99144.56;5353711;26;20283;-85
2024/04/16 09:48:38;;;;;;;1.93;1.33;;;;;;;11.34;57.92;99141.63;5350127;26;20764;-82
2024/04/16 09:51:08;;;;;;;3.43;1.00;;;;;;;11.35;56.07;99137.16;5348681;26;20235;-86
2024/04/16 09:53:35;;;;;;;2.60;1.17;;;;;;;11.32;56.47;99140.09;5349791;26;20275;-84
2024/04/16 09:56:04;;;;;;;3.23;1.20;;;;;;;11.39;56.74;99136.72;5350056;26;20251;-83
2024/04/16 09:58:33;;;;;;;3.33;1.30;;;;;;;11.45;56.95;99122.00;5349527;26;20636;-85
2024/04/16 10:01:02;;;;;;;2.37;1.53;;;;;;;11.50;56.31;99135.75;5350686;26;20246;-85
2024/04/16 10:03:30;;;;;;;4.93;1.17;;;;;;;11.50;55.10;99125.09;5349645;26;20237;-84
2024/04/16 10:05:58;;;;;;;1.53;1.10;;;;;;;11.51;55.84;99118.78;5351180;26;20657;-84
2024/04/16 10:08:25;;;;;;;1.40;0.70;;;;;;;11.59;54.56;99115.41;5352669;26;20582;-83
2024/04/16 10:10:56;;;;;;;2.80;1.10;;;;;;;11.58;54.06;99114.56;5347236;26;20279;-85
2024/04/16 10:13:21;;;;;;;4.87;1.63;;;;;;;11.56;54.79;99121.03;5352832;26;20724;-83
2024/04/16 10:15:53;;;;;;;1.40;1.10;;;;;;;11.48;53.56;99125.22;5350350;26;20281;-83
2024/04/16 10:18:20;;;;;;;9.73;1.40;;;;;;;11.44;54.47;99126.50;5351379;26;20242;-83
2024/04/16 10:20:53;;;;;;;12.67;2.07;;;;;;;11.42;54.43;99122.28;5352330;26;20304;-85
2024/04/16 10:23:18;;;;;;;5.93;1.37;;;;;;;11.38;54.03;99121.72;5334197;26;20265;-82
2024/04/16 10:25:51;;;;;;;1.60;1.40;;;;;;;11.39;55.18;99134.06;5350604;26;20235;-83
2024/04/16 10:28:22;;;;;;;2.97;1.13;;;;;;;11.40;54.86;99126.91;5348884;26;20953;-82
2024/04/16 10:31:00;;;;;;;29.00;3.23;;;;;;;11.40;54.96;99126.91;5346129;26;20275;-83
2024/04/16 10:33:26;;;;;;;2.80;1.13;;;;;;;11.47;55.22;99122.69;5347293;26;20589;-83
2024/04/16 10:35:56;;;;;;;32.43;3.50;;;;;;;11.49;55.62;99126.06;5348926;26;20670;-83
2024/04/16 10:38:23;;;;;;;2.13;0.90;;;;;;;11.55;54.89;99133.50;5359539;26;20279;-82
2024/04/16 10:40:59;;;;;;;1.17;0.90;;;;;;;11.56;54.52;99131.69;5348547;26;20282;-82
2024/04/16 10:43:25;;;;;;;4.47;1.00;;;;;;;11.48;56.19;99140.38;5325478;26;20245;-82
2024/04/16 10:45:57;;;;;;;2.10;1.33;;;;;;;11.41;55.40;99136.59;5347553;26;20232;-82
2024/04/16 10:48:23;;;;;;;1.37;0.70;;;;;;;11.36;53.94;99137.00;5320249;26;20237;-82
2024/04/16 10:50:52;;;;;;;0.90;0.70;;;;;;;11.26;54.78;99136.16;5345407;26;20239;-83
2024/04/16 10:53:19;;;;;;;1.77;1.10;;;;;;;11.23;54.97;99135.59;5344876;26;20574;-82
2024/04/16 10:55:49;;;;;;;1.70;0.87;;;;;;;11.22;55.24;99133.91;5337298;26;20272;-83
2024/04/16 10:58:15;;;;;;;2.03;1.03;;;;;;;11.22;55.19;99131.25;5344972;26;20313;-83
2024/04/16 11:00:44;;;;;;;0.83;0.60;;;;;;;11.24;54.71;99139.94;5344443;26;20273;-83
2024/04/16 11:03:12;;;;;;;1.30;0.60;;;;;;;11.21;54.53;99134.88;5344214;26;20755;-82
2024/04/16 11:05:42;;;;;;;0.87;0.70;;;;;;;11.21;54.70;99148.22;5344918;26;20807;-82
2024/04/16 11:08:08;;;;;;;0.97;0.40;;;;;;;11.24;55.17;99148.78;5343775;26;20284;-81
2024/04/16 11:10:36;;;;;;;1.43;0.60;;;;;;;11.22;55.83;99141.91;5344368;26;20243;-83
2024/04/16 11:13:03;;;;;;;0.60;0.40;;;;;;;11.23;56.43;99146.25;5345559;26;20237;-83
2024/04/16 11:15:34;;;;;;;1.13;0.77;;;;;;;11.23;56.35;99154.25;5345286;26;20238;-84
2024/04/16 11:18:00;;;;;;;3.00;0.70;;;;;;;11.26;56.58;99156.66;5344990;26;20237;-83
2024/04/16 11:20:31;;;;;;;1.70;0.53;;;;;;;11.25;55.96;99144.31;5345296;26;20258;-83
2024/04/16 11:22:58;;;;;;;0.70;0.40;;;;;;;11.26;56.32;99149.50;5345706;26;20738;-82
2024/04/16 11:25:31;;;;;;;1.03;0.50;;;;;;;11.25;56.11;99155.81;5346275;26;20233;-82
2024/04/16 11:27:57;;;;;;;0.90;0.50;;;;;;;11.30;56.96;99160.69;5345666;26;20237;-82
2024/04/16 11:30:26;;;;;;;1.40;0.30;;;;;;;11.26;55.03;99154.81;5335293;26;20895;-82
2024/04/16 11:32:52;;;;;;;0.50;0.40;;;;;;;11.19;55.77;99159.00;5337047;26;20272;-83
2024/04/16 11:35:21;;;;;;;0.63;0.40;;;;;;;11.13;56.34;99157.72;5345372;26;20354;-82
2024/04/16 11:37:50;;;;;;;0.67;0.30;;;;;;;11.12;57.63;99169.34;5344573;26;20287;-82
2024/04/16 11:40:18;;;;;;;1.87;0.33;;;;;;;11.10;59.98;99171.34;5345616;26;20360;-81
2024/04/16 11:42:45;;;;;;;0.93;0.20;;;;;;;11.06;59.92;99177.91;5344471;26;20939;-81